Aeroporto :
LOGIN :

Iscrizione | Disclaimer

   EN    FR    IT 

 










Sommario :    VFR   VFR Marginale   IFR   IFR Intensivo   IFR Molto Intensivo
Visibilità : 
Base nubi : 
>= 8 km
>= 3000ft
5 / 8 km
1000 / 3000 ft
1500m / 5 km
500 / 1000 ft
800 / 1500m
200 / 500 ft
< 800m
< 200 ft
Simboli :   Temporali  Nebbia  Neve Forte  Precipitazioni Forti  Vento > 20 kt
SIGMETs :   Varie  Temporali  Ghiacco  Turbolenza  Onda orograficha  Ceneri Vulcaniche






- Altitudine del aeroporto : 876 ft
- Codice IATA : MBX


LJMB - Maribor

ULTIMO METAR :
  • 202030Z 19008KT CAVOK 06/M04 Q1022

METARs OBSOLETI :
  • 202000Z 17006KT CAVOK 06/M04 Q1022
  • 201930Z 20006KT CAVOK 06/M04 Q1022
  • 201900Z 21005KT CAVOK 05/M03 Q1022
  • 201830Z 18004KT CAVOK 06/M04 Q1022
  • 201800Z 19004KT CAVOK 06/M05 Q1022

TAF TAF LJMB
Valido dal 20 a 18 ore il 21 a 18 ore UTC


201700Z 2018/2118 19005KT CAVOK
BECMG 2018/2020 35003KT
BECMG 2107/2109 36010KT
TEMPO 2109/2117 35015G30KT



MetMap, La meteo Aeronautica in un colpo d'occhio ! - Copyright ORBIFLY Dicembre 2007 - Disclaimer

ORBIFLY MET'MAP TEAM :

Programmazione e sviluppo : Alexandra Zaïnal
Concezione : Baudouin d'Aumeries
Aiuto per la programmazione : Marc-Olivier Méhu
Supporto tecnico e logistico : Manuel Goepfert
Aiuto per la traduzione : Arnaldo La Scala

Contatto : metmap@orbifly.com




FONTI E CREDITI :

   NOAA